Time;durP1;ratioP1;P1;durP2;ratioP2;P2;SDS_P1;SDS_P2;PMS_P1;PMS_P2;Temp;Humidity;BMP_temperature;BMP_pressure;BME280_temperature;BME280_humidity;BME280_pressure;Samples;Min_cycle;Max_cycle;Signal;HPM_P1;HPM_P2
2021/09/29 00:01:28;;;;;;;8.60;7.70;;;13.70;99.90;;;;;;5099695;28;20422;-46
2021/09/29 00:03:53;;;;;;;9.40;8.50;;;13.60;99.90;;;;;;5099749;28;20200;-46
2021/09/29 00:06:19;;;;;;;11.83;7.67;;;13.60;99.90;;;;;;5099609;28;20326;-46
2021/09/29 00:08:45;;;;;;;9.00;7.70;;;13.60;99.90;;;;;;5099632;28;20189;-46
2021/09/29 00:11:11;;;;;;;9.03;8.23;;;13.60;99.90;;;;;;5099840;28;20260;-46
2021/09/29 00:13:36;;;;;;;8.47;7.57;;;13.60;99.90;;;;;;5108992;28;20180;-46
2021/09/29 00:16:02;;;;;;;9.80;7.30;;;13.70;99.90;;;;;;5120009;28;20219;-46
2021/09/29 00:18:28;;;;;;;8.80;8.00;;;13.70;99.90;;;;;;5120118;28;20175;-46
2021/09/29 00:20:53;;;;;;;9.40;8.50;;;13.70;99.90;;;;;;5119746;28;20178;-46
2021/09/29 00:23:19;;;;;;;7.90;7.23;;;13.70;99.90;;;;;;5101540;28;20180;-46
2021/09/29 00:25:45;;;;;;;8.17;7.37;;;13.70;99.80;;;;;;5118596;28;20240;-46
2021/09/29 00:28:10;;;;;;;8.50;7.67;;;13.70;99.70;;;;;;5111803;28;20502;-46
2021/09/29 00:30:39;;;;;;;8.70;8.00;;;13.70;99.70;;;;;;5119703;28;20243;-46
2021/09/29 00:33:05;;;;;;;8.10;7.40;;;13.70;99.60;;;;;;5119208;28;20236;-46
2021/09/29 00:35:31;;;;;;;6.87;6.27;;;13.60;99.70;;;;;;5119394;28;20571;-46
2021/09/29 00:37:57;;;;;;;9.83;7.37;;;13.60;99.90;;;;;;5118777;28;20422;-46
2021/09/29 00:40:24;;;;;;;7.60;6.90;;;13.60;99.90;;;;;;5119497;28;20455;-46
2021/09/29 00:42:49;;;;;;;9.70;7.90;;;13.60;99.90;;;;;;5119546;28;20436;-46
2021/09/29 00:45:15;;;;;;;13.67;7.77;;;13.60;99.90;;;;;;5119430;28;20183;-46
2021/09/29 00:47:41;;;;;;;7.70;6.90;;;13.70;99.80;;;;;;5119437;28;20185;-46
2021/09/29 00:50:09;;;;;;;7.17;6.50;;;13.60;99.80;;;;;;5119280;28;20195;-46
2021/09/29 00:52:39;;;;;;;7.67;7.03;;;13.60;99.90;;;;;;5119371;28;20184;-46
2021/09/29 00:55:08;;;;;;;7.70;6.70;;;13.60;99.90;;;;;;5118775;28;20701;-46
2021/09/29 00:57:34;;;;;;;10.10;6.73;;;13.50;99.80;;;;;;5118980;28;20490;-46
2021/09/29 01:00:00;;;;;;;7.83;7.13;;;13.50;99.90;;;;;;5119674;28;20428;-46
2021/09/29 01:02:26;;;;;;;8.40;7.60;;;13.50;99.90;;;;;;5119460;28;20444;-46
2021/09/29 01:04:52;;;;;;;9.17;8.27;;;13.50;99.90;;;;;;5119248;28;20488;-46
2021/09/29 01:08:09;;;;;;;7.73;7.00;;;13.50;99.90;;;;;;5118593;28;20568;-46
2021/09/29 01:10:41;;;;;;;8.17;7.37;;;13.40;99.90;;;;;;5051458;28;20310;-46
2021/09/29 01:13:08;;;;;;;7.07;6.37;;;13.40;99.90;;;;;;5110396;28;20425;-46
2021/09/29 01:15:49;;;;;;;8.13;7.33;;;13.40;99.90;;;;;;5101014;28;20745;-46
2021/09/29 01:18:19;;;;;;;8.67;7.87;;;13.40;99.90;;;;;;5101194;28;20448;-46
2021/09/29 01:20:56;;;;;;;8.80;8.00;;;13.40;99.90;;;;;;5117587;28;20422;-44
2021/09/29 01:23:31;;;;;;;8.53;7.73;;;13.30;99.90;;;;;;5101034;28;20521;-44
2021/09/29 01:25:57;;;;;;;10.33;7.20;;;13.30;99.90;;;;;;5100940;28;20441;-44
2021/09/29 01:29:20;;;;;;;8.07;7.30;;;13.30;99.90;;;;;;5118401;28;20425;-44
2021/09/29 01:31:46;;;;;;;8.27;7.50;;;13.20;99.90;;;;;;5016473;28;20526;-44
2021/09/29 01:34:12;;;;;;;8.57;7.77;;;13.20;99.90;;;;;;5081534;28;20525;-44
2021/09/29 01:36:38;;;;;;;10.27;7.97;;;13.10;99.90;;;;;;5096111;28;20481;-44
2021/09/29 01:39:09;;;;;;;8.37;7.67;;;13.00;99.90;;;;;;5097904;28;20436;-46
2021/09/29 01:41:38;;;;;;;10.97;8.00;;;12.90;99.90;;;;;;5089794;28;20427;-45
2021/09/29 01:44:04;;;;;;;9.30;8.43;;;12.90;99.90;;;;;;5097526;28;20438;-46
2021/09/29 01:46:30;;;;;;;9.97;7.50;;;12.90;99.90;;;;;;5098117;28;20426;-46
2021/09/29 01:49:01;;;;;;;8.90;8.10;;;12.80;99.90;;;;;;5098081;28;20495;-46
2021/09/29 01:51:27;;;;;;;9.73;8.83;;;12.80;99.90;;;;;;5097973;28;20249;-46
2021/09/29 01:53:55;;;;;;;9.73;8.73;;;12.80;99.90;;;;;;5096843;28;20434;-46
2021/09/29 01:56:21;;;;;;;11.13;8.30;;;12.80;99.70;;;;;;5096951;28;20474;-46
2021/09/29 01:58:47;;;;;;;9.80;8.90;;;12.70;99.70;;;;;;5097004;28;20424;-46
2021/09/29 02:01:13;;;;;;;12.70;9.10;;;12.70;99.90;;;;;;5097590;28;20436;-46
2021/09/29 02:03:46;;;;;;;10.40;9.27;;;12.70;99.90;;;;;;5096848;28;20470;-46
2021/09/29 02:06:13;;;;;;;10.30;8.50;;;12.50;99.90;;;;;;5097858;28;20268;-46
2021/09/29 02:08:39;;;;;;;9.33;8.40;;;12.50;99.90;;;;;;5098001;28;20695;-46
2021/09/29 02:11:05;;;;;;;8.70;7.90;;;12.50;99.90;;;;;;5097463;28;20436;-46
2021/09/29 02:13:31;;;;;;;9.27;8.30;;;12.60;99.90;;;;;;5097637;28;20810;-46
2021/09/29 02:15:57;;;;;;;8.73;7.93;;;12.50;99.90;;;;;;5097438;28;20468;-46
2021/09/29 02:18:22;;;;;;;9.10;8.30;;;12.50;99.90;;;;;;5098169;28;20437;-46
2021/09/29 02:20:48;;;;;;;10.03;8.97;;;12.50;99.90;;;;;;5096251;28;20183;-46
2021/09/29 02:23:14;;;;;;;9.43;8.47;;;12.50;99.90;;;;;;5090864;28;20180;-46
2021/09/29 02:25:40;;;;;;;8.60;7.80;;;12.40;99.90;;;;;;5097493;28;20454;-46
2021/09/29 02:28:05;;;;;;;8.53;7.73;;;12.40;99.90;;;;;;5097598;28;20188;-46
2021/09/29 02:30:31;;;;;;;9.03;8.00;;;12.50;99.90;;;;;;5097560;28;20199;-46
2021/09/29 02:32:57;;;;;;;8.53;7.73;;;12.50;99.90;;;;;;5115068;28;20252;-46
2021/09/29 02:35:22;;;;;;;10.40;8.70;;;12.50;99.90;;;;;;5117493;28;20176;-46
2021/09/29 02:37:48;;;;;;;11.43;7.50;;;12.50;99.90;;;;;;5117348;28;20200;-46
2021/09/29 02:40:15;;;;;;;8.97;8.07;;;12.50;99.90;;;;;;5116882;28;20643;-46
2021/09/29 02:42:41;;;;;;;7.97;7.27;;;12.50;99.90;;;;;;5117281;28;20169;-46
2021/09/29 02:45:07;;;;;;;10.10;7.43;;;12.50;99.90;;;;;;5116794;28;20770;-44
2021/09/29 02:47:33;;;;;;;8.00;7.30;;;12.50;99.90;;;;;;5118643;28;20836;-44
2021/09/29 02:49:59;;;;;;;12.00;7.87;;;12.50;99.90;;;;;;5121013;28;20492;-45
2021/09/29 02:52:25;;;;;;;9.70;8.40;;;12.50;99.90;;;;;;5120901;28;20545;-45
2021/09/29 02:54:50;;;;;;;9.73;8.83;;;12.40;99.90;;;;;;5121326;28;20179;-45
2021/09/29 02:57:16;;;;;;;11.60;9.27;;;12.40;99.90;;;;;;5121217;28;20199;-45
2021/09/29 02:59:42;;;;;;;10.53;8.70;;;12.30;99.90;;;;;;5121483;28;20179;-45
2021/09/29 03:02:07;;;;;;;12.73;9.30;;;12.30;99.90;;;;;;5121425;28;20226;-45
2021/09/29 03:04:33;;;;;;;10.50;9.50;;;12.30;99.90;;;;;;5121391;28;20176;-45
2021/09/29 03:06:59;;;;;;;11.10;10.00;;;12.20;99.90;;;;;;5121133;28;20186;-45
2021/09/29 03:09:24;;;;;;;10.23;9.23;;;12.20;99.90;;;;;;5121264;28;20180;-45
2021/09/29 03:11:50;;;;;;;11.17;10.00;;;12.20;99.90;;;;;;5121489;28;20517;-45
2021/09/29 03:14:16;;;;;;;10.33;9.23;;;12.20;99.90;;;;;;5121332;28;20253;-45
2021/09/29 03:16:42;;;;;;;12.33;9.37;;;12.20;99.90;;;;;;5120791;28;20213;-45
2021/09/29 03:19:07;;;;;;;10.60;9.50;;;12.20;99.90;;;;;;5120997;28;20210;-45
2021/09/29 03:21:33;;;;;;;12.03;10.93;;;12.20;99.90;;;;;;5120713;28;20170;-46
2021/09/29 03:23:59;;;;;;;10.63;9.53;;;12.20;99.90;;;;;;5120637;28;20176;-45
2021/09/29 03:26:24;;;;;;;11.07;10.07;;;12.20;99.90;;;;;;5119957;28;20191;-45
2021/09/29 03:28:50;;;;;;;10.90;9.80;;;12.10;99.90;;;;;;5120101;28;20439;-45
2021/09/29 03:31:16;;;;;;;10.90;9.53;;;12.20;99.90;;;;;;5120075;28;20231;-45
2021/09/29 03:33:41;;;;;;;11.47;10.27;;;12.10;99.90;;;;;;5120364;28;20179;-45
2021/09/29 03:36:07;;;;;;;11.70;10.50;;;12.20;99.90;;;;;;5120965;28;20214;-45
2021/09/29 03:38:33;;;;;;;11.50;10.10;;;12.20;99.90;;;;;;5121091;28;20214;-45
2021/09/29 03:40:59;;;;;;;11.67;10.30;;;12.20;99.90;;;;;;5120659;28;20256;-45
2021/09/29 03:43:24;;;;;;;16.07;11.03;;;12.20;99.90;;;;;;5120527;28;20738;-45
2021/09/29 03:45:50;;;;;;;10.37;9.37;;;12.20;99.90;;;;;;5120468;28;20237;-45
2021/09/29 03:48:16;;;;;;;11.17;10.07;;;12.20;99.90;;;;;;5120518;28;20739;-45
2021/09/29 03:50:42;;;;;;;13.07;9.53;;;12.20;99.90;;;;;;5120512;28;20184;-46
2021/09/29 03:53:07;;;;;;;13.30;10.50;;;12.20;99.90;;;;;;5120178;28;20176;-45
2021/09/29 03:55:33;;;;;;;10.97;9.87;;;12.20;99.90;;;;;;5120595;28;20176;-45
2021/09/29 03:57:59;;;;;;;10.80;9.60;;;12.20;99.90;;;;;;5120181;28;20597;-45
2021/09/29 04:00:25;;;;;;;12.03;10.10;;;12.20;99.90;;;;;;5119690;28;20414;-46
2021/09/29 04:02:50;;;;;;;9.97;8.20;;;12.10;99.90;;;;;;5101482;28;20187;-46
2021/09/29 04:05:16;;;;;;;10.17;9.03;;;12.10;99.90;;;;;;5118956;28;20429;-46
2021/09/29 04:07:42;;;;;;;9.30;8.40;;;12.10;99.90;;;;;;5119359;28;20502;-46
2021/09/29 04:10:09;;;;;;;9.97;8.20;;;12.10;99.90;;;;;;5119134;28;20309;-46
2021/09/29 04:12:35;;;;;;;11.90;8.47;;;12.20;99.90;;;;;;5118974;28;20171;-46
2021/09/29 04:15:01;;;;;;;8.30;7.60;;;12.20;99.90;;;;;;5101059;28;20518;-46
2021/09/29 04:17:27;;;;;;;7.93;7.10;;;12.20;99.90;;;;;;5119163;28;20517;-46
2021/09/29 04:19:53;;;;;;;7.77;6.50;;;12.30;99.90;;;;;;5119316;28;20175;-46
2021/09/29 04:22:19;;;;;;;10.70;6.53;;;12.40;99.90;;;;;;5119106;28;20187;-46
2021/09/29 04:24:44;;;;;;;10.47;7.37;;;12.50;99.90;;;;;;5084427;28;20420;-46
2021/09/29 04:27:11;;;;;;;10.03;7.17;;;12.50;99.90;;;;;;5118618;28;20255;-46
2021/09/29 04:29:38;;;;;;;11.50;6.50;;;12.60;99.90;;;;;;5117839;28;20629;-46
2021/09/29 04:32:05;;;;;;;7.40;6.23;;;12.60;99.90;;;;;;5118002;28;20891;-46
2021/09/29 04:34:30;;;;;;;7.77;7.07;;;12.60;99.90;;;;;;5099458;28;20808;-46
2021/09/29 04:36:56;;;;;;;8.47;6.63;;;12.60;99.90;;;;;;5117424;28;20499;-46
2021/09/29 04:39:22;;;;;;;9.30;7.20;;;12.60;99.90;;;;;;5116008;28;20176;-46
2021/09/29 04:41:47;;;;;;;6.73;6.13;;;12.70;99.90;;;;;;5115732;28;20547;-46
2021/09/29 04:44:13;;;;;;;8.40;6.10;;;12.60;99.90;;;;;;5115791;28;20183;-46
2021/09/29 04:46:39;;;;;;;10.60;7.10;;;12.60;99.90;;;;;;5095828;28;20241;-46
2021/09/29 04:49:05;;;;;;;10.07;6.20;;;12.60;99.90;;;;;;5095782;28;20534;-46
2021/09/29 04:51:30;;;;;;;6.43;5.73;;;12.60;99.90;;;;;;5096703;28;20184;-46
2021/09/29 04:53:56;;;;;;;8.80;6.50;;;12.50;99.90;;;;;;5097234;28;20181;-46
2021/09/29 04:56:22;;;;;;;9.30;7.60;;;12.50;99.90;;;;;;5097797;28;20200;-46
2021/09/29 04:58:48;;;;;;;9.87;7.27;;;12.50;99.90;;;;;;5097106;28;20630;-46
2021/09/29 05:01:14;;;;;;;8.30;6.43;;;12.40;99.90;;;;;;5096643;28;20590;-46
2021/09/29 05:03:39;;;;;;;7.63;6.80;;;12.40;99.90;;;;;;5096729;28;20177;-46
2021/09/29 05:06:05;;;;;;;7.60;6.90;;;12.40;99.90;;;;;;5097341;28;20422;-46
2021/09/29 05:08:34;;;;;;;9.37;7.50;;;12.40;99.90;;;;;;5097121;28;20191;-46
2021/09/29 05:11:03;;;;;;;8.33;7.17;;;12.40;99.90;;;;;;5096227;28;20440;-46
2021/09/29 05:13:30;;;;;;;9.70;7.27;;;12.30;99.90;;;;;;5106376;28;20527;-46
2021/09/29 05:16:00;;;;;;;10.80;7.47;;;12.30;99.90;;;;;;5116830;28;20464;-46
2021/09/29 05:18:26;;;;;;;9.70;7.40;;;12.20;99.90;;;;;;5115311;28;20713;-46
2021/09/29 05:20:53;;;;;;;8.57;7.67;;;12.10;99.90;;;;;;5115464;28;20413;-46
2021/09/29 05:23:19;;;;;;;10.80;8.00;;;12.10;99.90;;;;;;5115226;28;20563;-46
2021/09/29 05:25:45;;;;;;;9.80;8.80;;;12.10;99.90;;;;;;5114430;28;20482;-46
2021/09/29 05:28:17;;;;;;;12.87;8.60;;;12.10;99.90;;;;;;5096280;28;20418;-46
2021/09/29 05:30:44;;;;;;;9.60;8.10;;;12.00;99.90;;;;;;5114686;28;20565;-47
2021/09/29 05:33:10;;;;;;;10.10;9.20;;;12.00;99.90;;;;;;5114369;28;20464;-46
2021/09/29 05:35:36;;;;;;;10.77;7.97;;;12.10;99.90;;;;;;5114902;28;20408;-46
2021/09/29 05:38:05;;;;;;;9.10;8.20;;;12.00;99.90;;;;;;5113426;28;20414;-46
2021/09/29 05:40:32;;;;;;;9.80;8.80;;;12.00;99.90;;;;;;5112240;28;20900;-47
2021/09/29 05:42:58;;;;;;;10.00;8.90;;;11.90;99.90;;;;;;5113168;28;20424;-46
2021/09/29 05:45:24;;;;;;;10.90;9.20;;;11.90;99.90;;;;;;5114872;28;20702;-46
2021/09/29 05:47:50;;;;;;;10.30;8.40;;;11.90;99.90;;;;;;5114363;28;20433;-46
2021/09/29 05:50:16;;;;;;;9.87;8.47;;;11.90;99.90;;;;;;5111914;28;20422;-46
2021/09/29 05:52:42;;;;;;;8.70;7.90;;;11.90;99.90;;;;;;5114411;28;20266;-46
2021/09/29 05:55:08;;;;;;;9.13;8.17;;;11.90;99.90;;;;;;5111969;28;20486;-46
2021/09/29 05:57:34;;;;;;;9.70;8.70;;;11.90;99.90;;;;;;5113207;28;20222;-46
2021/09/29 05:59:59;;;;;;;10.13;7.13;;;12.00;99.90;;;;;;5112736;28;20981;-46
2021/09/29 06:02:25;;;;;;;12.03;8.53;;;12.00;99.90;;;;;;5112947;28;20253;-46
2021/09/29 06:04:51;;;;;;;9.90;9.00;;;12.00;99.90;;;;;;5113207;28;20858;-46
2021/09/29 06:07:17;;;;;;;9.00;8.10;;;12.10;99.90;;;;;;5113622;28;20190;-46
2021/09/29 06:09:44;;;;;;;10.97;7.90;;;12.30;99.90;;;;;;5112863;28;20175;-46
2021/09/29 06:12:12;;;;;;;11.70;8.13;;;12.30;99.90;;;;;;5113559;28;20441;-46
2021/09/29 06:14:40;;;;;;;8.20;7.40;;;12.40;99.90;;;;;;5113470;28;20479;-46
2021/09/29 06:17:20;;;;;;;10.50;8.20;;;12.50;99.90;;;;;;5111202;28;20871;-46
2021/09/29 06:19:46;;;;;;;8.37;7.40;;;12.70;99.90;;;;;;5097976;28;20417;-46
2021/09/29 06:22:12;;;;;;;10.47;7.23;;;12.80;99.90;;;;;;5114823;28;20435;-46
2021/09/29 06:24:37;;;;;;;9.50;8.20;;;12.90;99.90;;;;;;5118830;28;20180;-46
2021/09/29 06:27:04;;;;;;;9.10;7.40;;;12.90;99.90;;;;;;5117470;28;20425;-46
2021/09/29 06:29:30;;;;;;;13.47;7.23;;;13.00;99.90;;;;;;5117719;28;20439;-46
2021/09/29 06:31:56;;;;;;;10.30;6.90;;;13.10;99.90;;;;;;5116509;28;20458;-46
2021/09/29 06:34:26;;;;;;;7.90;6.80;;;13.10;99.90;;;;;;5115509;28;20448;-46
2021/09/29 06:36:51;;;;;;;7.77;6.17;;;13.20;99.90;;;;;;5117642;28;20545;-48
2021/09/29 06:39:17;;;;;;;9.43;6.83;;;13.30;99.90;;;;;;5100182;28;20414;-46
2021/09/29 06:41:45;;;;;;;8.87;6.43;;;13.30;99.90;;;;;;5115992;28;20339;-46
2021/09/29 06:44:11;;;;;;;9.80;6.50;;;13.50;99.90;;;;;;5102581;28;20824;-47
2021/09/29 06:46:37;;;;;;;8.47;7.10;;;13.60;99.90;;;;;;5098405;28;20425;-47
2021/09/29 06:49:03;;;;;;;7.13;6.23;;;13.60;99.90;;;;;;5098505;28;20413;-47
2021/09/29 06:51:29;;;;;;;7.27;6.20;;;13.80;99.90;;;;;;5097067;28;20431;-47
2021/09/29 06:53:54;;;;;;;8.43;5.90;;;14.10;99.90;;;;;;5097428;28;20700;-47
2021/09/29 06:56:20;;;;;;;5.67;5.07;;;14.60;99.00;;;;;;5097291;28;20289;-47
2021/09/29 06:58:47;;;;;;;7.43;5.00;;;14.80;98.40;;;;;;5096380;28;20362;-47
2021/09/29 07:01:13;;;;;;;5.23;4.77;;;15.30;97.20;;;;;;5095480;28;20232;-47
2021/09/29 07:03:39;;;;;;;5.80;4.53;;;15.60;96.30;;;;;;5095999;28;20421;-47
2021/09/29 07:06:05;;;;;;;5.83;4.90;;;15.50;96.40;;;;;;5095277;28;20963;-47
2021/09/29 07:08:30;;;;;;;4.80;4.33;;;15.70;96.30;;;;;;5078240;28;20484;-45
2021/09/29 07:10:56;;;;;;;5.07;4.17;;;15.80;96.10;;;;;;5096713;28;20196;-45
2021/09/29 07:13:22;;;;;;;3.43;3.10;;;15.80;95.20;;;;;;5097352;28;20196;-45
2021/09/29 07:15:48;;;;;;;3.60;3.30;;;15.90;95.20;;;;;;5095995;28;20181;-45
2021/09/29 07:18:16;;;;;;;3.77;3.40;;;16.30;94.60;;;;;;5098805;28;20425;-46
2021/09/29 07:20:43;;;;;;;4.43;3.37;;;16.50;94.10;;;;;;5098888;28;20410;-46
2021/09/29 07:23:09;;;;;;;5.13;3.33;;;16.40;93.90;;;;;;5097536;28;20423;-46
2021/09/29 07:25:37;;;;;;;4.27;3.40;;;16.40;93.80;;;;;;5097836;28;20425;-46
2021/09/29 07:28:04;;;;;;;3.23;2.70;;;16.90;93.80;;;;;;5097200;28;20421;-46
2021/09/29 07:30:30;;;;;;;3.40;2.57;;;16.30;93.30;;;;;;5099312;28;20758;-46
2021/09/29 07:32:58;;;;;;;5.67;2.73;;;15.70;94.00;;;;;;5081021;28;20543;-46
2021/09/29 07:35:23;;;;;;;3.50;2.90;;;15.60;94.20;;;;;;5076694;28;20453;-46
2021/09/29 07:37:51;;;;;;;4.00;2.30;;;15.70;94.50;;;;;;5076974;28;20486;-46
2021/09/29 07:40:16;;;;;;;2.50;1.90;;;16.20;93.70;;;;;;5076737;28;20504;-46
2021/09/29 07:42:42;;;;;;;4.80;2.37;;;17.40;92.00;;;;;;5078264;28;20452;-46
2021/09/29 07:45:09;;;;;;;3.07;1.97;;;18.70;90.60;;;;;;5097869;28;20432;-46
2021/09/29 07:47:35;;;;;;;5.00;1.90;;;19.80;86.70;;;;;;5096985;28;20181;-46
2021/09/29 07:50:01;;;;;;;2.60;1.70;;;20.10;85.10;;;;;;5097563;28;20474;-46
2021/09/29 07:52:27;;;;;;;4.93;2.00;;;20.70;84.00;;;;;;5096799;28;20843;-46
2021/09/29 07:54:53;;;;;;;4.53;1.90;;;21.90;80.70;;;;;;5097654;28;20426;-46
2021/09/29 07:57:19;;;;;;;3.83;1.87;;;22.80;76.10;;;;;;5096436;28;20218;-46
2021/09/29 07:59:45;;;;;;;2.37;2.10;;;23.00;74.00;;;;;;5094258;28;20410;-46
2021/09/29 08:02:11;;;;;;;2.30;2.00;;;22.50;71.80;;;;;;5093567;28;20411;-46
2021/09/29 08:04:37;;;;;;;3.27;1.97;;;21.00;73.70;;;;;;5095069;28;20422;-46
2021/09/29 08:07:07;;;;;;;4.03;1.80;;;21.50;74.30;;;;;;5095682;28;20527;-46
2021/09/29 08:09:33;;;;;;;4.97;2.27;;;21.50;75.30;;;;;;5096012;28;20766;-46
2021/09/29 08:11:59;;;;;;;5.53;1.60;;;22.40;73.70;;;;;;5095730;28;20424;-46
2021/09/29 08:14:25;;;;;;;5.67;2.10;;;23.00;70.10;;;;;;5096379;28;20186;-47
2021/09/29 08:16:51;;;;;;;2.90;1.73;;;22.30;70.60;;;;;;5096344;28;20484;-46
2021/09/29 08:19:16;;;;;;;3.97;1.87;;;23.20;69.50;;;;;;5097704;28;20260;-46
2021/09/29 08:21:49;;;;;;;5.33;2.10;;;22.30;67.60;;;;;;5097450;28;20423;-46
2021/09/29 08:24:21;;;;;;;4.43;2.07;;;22.90;69.10;;;;;;5096267;28;20177;-47
2021/09/29 08:27:03;;;;;;;3.77;1.87;;;23.60;66.80;;;;;;5098326;28;20430;-46
2021/09/29 08:38:12;;;;;;;2.90;1.73;;;24.20;62.90;;;;;;5084084;28;20480;-46
2021/09/29 08:43:18;;;;;;;2.97;1.57;;;25.10;58.50;;;;;;5096049;28;20438;-38
2021/09/29 08:48:25;;;;;;;2.17;1.50;;;24.30;59.30;;;;;;5096290;28;20431;-39
2021/09/29 09:18:08;;;;;;;3.17;1.60;;;23.40;57.40;;;;;;5098786;28;20465;-40
2021/09/29 09:20:37;;;;;;;3.30;1.70;;;22.30;59.10;;;;;;5099342;28;20416;-38
2021/09/29 09:23:03;;;;;;;2.00;1.47;;;21.50;60.80;;;;;;5099817;28;20177;-40
2021/09/29 09:25:37;;;;;;;2.97;1.30;;;20.60;64.10;;;;;;5099267;28;20419;-43
2021/09/29 09:28:04;;;;;;;3.53;1.40;;;21.70;64.30;;;;;;5097682;28;20409;-40
2021/09/29 09:30:33;;;;;;;2.27;1.27;;;22.20;62.60;;;;;;5095173;28;20497;-38
2021/09/29 09:32:59;;;;;;;2.47;1.60;;;23.20;61.60;;;;;;5095752;28;20476;-40
2021/09/29 09:35:29;;;;;;;3.40;1.80;;;23.50;59.30;;;;;;5097389;28;20484;-42
2021/09/29 09:37:59;;;;;;;2.47;1.40;;;23.00;59.20;;;;;;5095354;28;20469;-42
2021/09/29 09:40:29;;;;;;;2.63;1.20;;;23.00;59.60;;;;;;5075589;28;20420;-40
2021/09/29 09:42:57;;;;;;;4.70;1.30;;;22.10;58.00;;;;;;5095547;28;20439;-41
2021/09/29 09:45:49;;;;;;;3.30;1.50;;;21.60;58.90;;;;;;5113894;28;20418;-43
2021/09/29 09:48:15;;;;;;;4.73;1.30;;;20.80;59.40;;;;;;5091082;28;20450;-40
2021/09/29 09:50:41;;;;;;;7.60;1.43;;;20.30;58.60;;;;;;5113766;28;20453;-39
2021/09/29 09:53:13;;;;;;;1.90;0.90;;;20.10;59.70;;;;;;5095077;28;20260;-41
2021/09/29 09:55:39;;;;;;;2.60;1.10;;;20.30;59.30;;;;;;5113244;28;20421;-40
2021/09/29 09:58:05;;;;;;;4.43;1.30;;;20.30;59.80;;;;;;5114084;28;20522;-40
2021/09/29 10:00:33;;;;;;;2.60;1.10;;;20.50;59.70;;;;;;5115602;28;20412;-42
2021/09/29 10:03:00;;;;;;;2.40;1.00;;;21.30;59.00;;;;;;5114759;28;20219;-40
2021/09/29 10:05:27;;;;;;;3.97;1.60;;;21.50;57.90;;;;;;5115294;28;20419;-38
2021/09/29 10:07:53;;;;;;;1.90;1.20;;;21.60;57.70;;;;;;5116581;28;20432;-39
2021/09/29 10:10:38;;;;;;;1.40;1.00;;;22.60;57.50;;;;;;5116127;28;20764;-39
2021/09/29 10:27:17;;;;;;;2.93;1.20;;;22.50;56.80;;;;;;5114419;28;20408;-41
2021/09/29 10:29:47;;;;;;;1.47;1.23;;;21.80;56.80;;;;;;5114461;28;20404;-41
2021/09/29 10:32:16;;;;;;;1.60;1.00;;;21.40;58.10;;;;;;5114212;28;20477;-39
2021/09/29 10:43:29;;;;;;;2.40;1.10;;;19.00;61.50;;;;;;5113742;28;20422;-41
2021/09/29 11:30:05;;;;;;;3.10;1.23;;;27.00;51.30;;;;;;5115320;28;20568;-39
2021/09/29 11:35:03;;;;;;;3.17;0.90;;;26.40;49.20;;;;;;5118006;28;20505;-41
2021/09/29 11:38:24;;;;;;;1.83;0.80;;;25.60;50.40;;;;;;5115995;28;20961;-41
2021/09/29 12:11:42;;;;;;;2.73;1.37;;;22.90;54.80;;;;;;5098920;28;20430;-39
2021/09/29 12:14:16;;;;;;;2.83;1.50;;;23.90;52.90;;;;;;5117352;28;20474;-39
2021/09/29 12:16:44;;;;;;;4.00;1.80;;;24.70;52.60;;;;;;5117478;28;20849;-42
2021/09/29 12:19:22;;;;;;;4.07;1.50;;;25.70;51.50;;;;;;5116455;28;20410;-39
2021/09/29 12:21:54;;;;;;;1.70;0.83;;;26.60;50.50;;;;;;5116578;28;20744;-40
2021/09/29 12:24:59;;;;;;;2.53;0.93;;;27.10;48.80;;;;;;5117999;28;20456;-40
2021/09/29 12:27:38;;;;;;;2.53;0.87;;;26.50;48.40;;;;;;5116580;28;20428;-41
2021/09/29 12:30:21;;;;;;;2.53;0.87;;;25.90;48.60;;;;;;5116279;28;20423;-39
2021/09/29 12:35:45;;;;;;;2.00;0.80;;;26.00;49.00;;;;;;5094983;28;21019;-41
2021/09/29 12:38:13;;;;;;;2.00;0.80;;;24.50;49.90;;;;;;5094629;28;20471;-39
2021/09/29 12:40:42;;;;;;;2.17;1.00;;;23.60;51.70;;;;;;5092780;28;20406;-39
2021/09/29 12:43:15;;;;;;;3.40;1.10;;;24.10;51.60;;;;;;5099702;28;20835;-40
2021/09/29 12:45:46;;;;;;;3.83;1.47;;;23.60;51.60;;;;;;5114576;28;20688;-41
2021/09/29 12:48:13;;;;;;;2.63;0.90;;;22.50;53.00;;;;;;5114369;28;20823;-43
2021/09/29 12:56:07;;;;;;;2.30;1.20;;;21.50;56.20;;;;;;5113909;28;20406;-39
2021/09/29 12:58:34;;;;;;;3.47;1.20;;;21.50;56.20;;;;;;5114157;28;20426;-40
2021/09/29 13:01:00;;;;;;;3.50;1.23;;;21.00;58.80;;;;;;5114068;28;20576;-38
2021/09/29 13:03:27;;;;;;;3.93;1.50;;;20.70;59.70;;;;;;5114897;28;20490;-41
2021/09/29 13:05:54;;;;;;;2.50;1.03;;;20.40;61.70;;;;;;5105552;28;20424;-38
2021/09/29 13:08:21;;;;;;;2.90;1.10;;;21.10;60.90;;;;;;5095522;28;20407;-39
2021/09/29 13:10:47;;;;;;;3.43;1.30;;;21.90;59.90;;;;;;5094972;28;20414;-40
2021/09/29 13:13:13;;;;;;;4.17;1.13;;;21.70;59.90;;;;;;5094446;28;20407;-39
2021/09/29 13:15:42;;;;;;;2.37;1.00;;;21.50;60.40;;;;;;5095227;28;20434;-39
2021/09/29 13:18:14;;;;;;;2.80;1.10;;;21.20;61.70;;;;;;5096136;28;20463;-41
2021/09/29 13:20:43;;;;;;;1.70;0.97;;;20.50;62.30;;;;;;5078402;28;20704;-39
2021/09/29 13:23:22;;;;;;;2.00;1.40;;;20.00;64.60;;;;;;5096161;28;20555;-38
2021/09/29 13:36:43;;;;;;;4.00;1.40;;;18.00;84.10;;;;;;5075513;28;20537;-42
2021/09/29 13:39:12;;;;;;;9.00;2.20;;;17.70;89.50;;;;;;5097693;28;20845;-38
2021/09/29 13:41:38;;;;;;;4.40;1.83;;;17.50;91.80;;;;;;5079031;28;20466;-42
2021/09/29 13:44:05;;;;;;;2.80;1.10;;;17.40;92.50;;;;;;5096688;28;20440;-39
2021/09/29 13:46:31;;;;;;;4.57;1.33;;;17.30;93.60;;;;;;5096422;28;20452;-40
2021/09/29 13:48:58;;;;;;;2.40;1.00;;;17.30;94.70;;;;;;5097540;28;20896;-39
2021/09/29 13:51:26;;;;;;;5.20;1.53;;;17.20;94.80;;;;;;5094304;28;20782;-44
2021/09/29 13:53:54;;;;;;;3.47;1.63;;;17.30;95.30;;;;;;5111880;28;20429;-38
2021/09/29 13:56:21;;;;;;;2.50;1.20;;;17.30;95.30;;;;;;5111663;28;20718;-39
2021/09/29 13:58:58;;;;;;;2.80;1.50;;;17.40;95.80;;;;;;5093886;28;20417;-40
2021/09/29 14:34:10;;;;;;;0.90;0.40;;;15.50;94.30;;;;;;5134970;28;20868;-42
2021/09/29 14:36:36;;;;;;;1.90;0.70;;;15.30;95.10;;;;;;5133169;28;20461;-43
2021/09/29 14:39:03;;;;;;;1.80;0.57;;;15.20;95.40;;;;;;5134936;28;20299;-40
2021/09/29 14:41:28;;;;;;;1.40;0.50;;;15.10;95.70;;;;;;5134549;28;20224;-39
2021/09/29 14:43:54;;;;;;;0.97;0.50;;;14.90;95.90;;;;;;5134086;27;20463;-42
2021/09/29 14:46:21;;;;;;;2.10;0.50;;;14.80;96.10;;;;;;5134822;27;20543;-40
2021/09/29 14:48:46;;;;;;;2.93;0.40;;;14.70;95.90;;;;;;5136310;27;20200;-39
2021/09/29 14:51:12;;;;;;;1.00;0.60;;;14.50;95.80;;;;;;5136739;27;20428;-39
2021/09/29 14:53:39;;;;;;;1.10;0.50;;;14.40;96.10;;;;;;5138487;27;21096;-39
2021/09/29 14:56:06;;;;;;;1.63;0.80;;;14.40;96.50;;;;;;5139826;27;20570;-39
2021/09/29 14:58:33;;;;;;;1.70;0.80;;;14.40;96.50;;;;;;5139397;27;20424;-41
2021/09/29 15:00:59;;;;;;;1.77;0.60;;;14.50;96.50;;;;;;5120374;27;20434;-39
2021/09/29 15:03:25;;;;;;;1.87;0.70;;;14.40;96.60;;;;;;5137152;27;20814;-40
2021/09/29 15:05:51;;;;;;;0.90;0.60;;;14.40;96.70;;;;;;5134978;27;20165;-39
2021/09/29 15:08:17;;;;;;;2.43;0.70;;;14.20;96.90;;;;;;5136060;27;20933;-38
2021/09/29 15:10:44;;;;;;;1.03;0.67;;;14.20;97.40;;;;;;5134599;27;20412;-40
2021/09/29 15:13:11;;;;;;;1.80;0.70;;;14.20;97.30;;;;;;5136925;27;20599;-39
2021/09/29 15:15:48;;;;;;;1.40;0.50;;;14.20;97.10;;;;;;5136015;27;20416;-42
2021/09/29 15:18:19;;;;;;;2.00;0.87;;;14.10;97.20;;;;;;5138566;27;20474;-40
2021/09/29 15:47:55;;;;;;;1.40;0.70;;;14.00;94.90;;;;;;5117295;28;20421;-42
2021/09/29 15:50:38;;;;;;;1.67;1.03;;;14.70;94.80;;;;;;5118818;28;20420;-42
2021/09/29 15:58:25;;;;;;;2.20;0.80;;;17.80;89.20;;;;;;5117314;28;20504;-39
2021/09/29 16:01:10;;;;;;;1.10;0.60;;;18.30;85.00;;;;;;5117134;28;20410;-41
2021/09/29 16:03:48;;;;;;;1.50;0.70;;;17.80;83.30;;;;;;5117062;28;20783;-41
2021/09/29 16:06:40;;;;;;;1.30;0.70;;;17.50;84.30;;;;;;5100364;28;20505;-42
2021/09/29 16:09:36;;;;;;;1.20;0.93;;;17.00;85.50;;;;;;5116969;28;20880;-41
2021/09/29 16:15:48;;;;;;;2.53;1.43;;;15.70;89.30;;;;;;5061477;28;20528;-39
2021/09/29 16:23:02;;;;;;;3.23;1.00;;;14.50;91.40;;;;;;5116831;28;20430;-40
2021/09/29 16:36:09;;;;;;;1.33;0.80;;;14.10;92.50;;;;;;5103770;28;20528;-39
2021/09/29 16:38:36;;;;;;;1.50;0.80;;;14.00;92.60;;;;;;5109203;28;20419;-43
2021/09/29 16:41:02;;;;;;;0.90;0.60;;;13.90;93.10;;;;;;5116703;28;20424;-42
2021/09/29 16:43:29;;;;;;;1.27;0.83;;;13.80;93.10;;;;;;5116698;28;20477;-42
2021/09/29 16:45:56;;;;;;;2.47;0.90;;;13.80;93.20;;;;;;5115668;28;20409;-40
2021/09/29 16:48:26;;;;;;;1.27;0.80;;;13.80;93.50;;;;;;5115029;28;20477;-41
2021/09/29 16:53:41;;;;;;;2.13;0.90;;;13.60;93.40;;;;;;5118243;28;20572;-43
2021/09/29 16:56:08;;;;;;;4.00;0.70;;;13.50;93.70;;;;;;5117001;28;20876;-39
2021/09/29 17:01:11;;;;;;;2.47;1.27;;;13.40;94.20;;;;;;5115227;28;20505;-44